sensor_id;sensor_type;location;lat;lon;timestamp;pressure;altitude;pressure_sealevel;temperature;humidity
38163;BME280;23977;53.078;18.248;2023-07-31T00:00:25;100609.50;;;18.69;89.34
38163;BME280;23977;53.078;18.248;2023-07-31T00:03:10;100611.38;;;18.68;88.96
38163;BME280;23977;53.078;18.248;2023-07-31T00:05:36;100605.81;;;18.57;89.23
38163;BME280;23977;53.078;18.248;2023-07-31T00:08:02;100604.47;;;18.41;89.53
38163;BME280;23977;53.078;18.248;2023-07-31T00:10:27;100616.88;;;18.48;89.77
38163;BME280;23977;53.078;18.248;2023-07-31T00:12:53;100625.25;;;18.34;91.36
38163;BME280;23977;53.078;18.248;2023-07-31T00:15:19;100612.47;;;18.16;92.32
38163;BME280;23977;53.078;18.248;2023-07-31T00:17:44;100614.97;;;18.17;92.75
38163;BME280;23977;53.078;18.248;2023-07-31T00:20:10;100601.09;;;18.14;92.68
38163;BME280;23977;53.078;18.248;2023-07-31T00:22:36;100598.47;;;17.93;94.13
38163;BME280;23977;53.078;18.248;2023-07-31T00:25:01;100600.16;;;17.88;94.26
38163;BME280;23977;53.078;18.248;2023-07-31T00:27:27;100620.81;;;18.01;94.05
38163;BME280;23977;53.078;18.248;2023-07-31T00:29:53;100607.16;;;18.02;93.59
38163;BME280;23977;53.078;18.248;2023-07-31T00:32:18;100610.56;;;18.23;92.38
38163;BME280;23977;53.078;18.248;2023-07-31T00:34:44;100611.41;;;18.17;93.70
38163;BME280;23977;53.078;18.248;2023-07-31T00:37:10;100618.84;;;18.28;92.40
38163;BME280;23977;53.078;18.248;2023-07-31T00:39:35;100629.38;;;18.36;92.52
38163;BME280;23977;53.078;18.248;2023-07-31T00:42:01;100611.66;;;18.08;92.87
38163;BME280;23977;53.078;18.248;2023-07-31T00:44:27;100616.84;;;18.10;92.77
38163;BME280;23977;53.078;18.248;2023-07-31T00:46:53;100619.13;;;18.06;93.89
38163;BME280;23977;53.078;18.248;2023-07-31T00:49:20;100597.22;;;17.96;93.78
38163;BME280;23977;53.078;18.248;2023-07-31T00:51:46;100625.34;;;18.14;93.22
38163;BME280;23977;53.078;18.248;2023-07-31T00:54:11;100625.94;;;18.16;94.07
38163;BME280;23977;53.078;18.248;2023-07-31T00:56:37;100628.22;;;18.19;93.03
38163;BME280;23977;53.078;18.248;2023-07-31T00:59:03;100613.53;;;18.08;94.35
38163;BME280;23977;53.078;18.248;2023-07-31T01:01:29;100625.53;;;18.19;95.01
38163;BME280;23977;53.078;18.248;2023-07-31T01:03:54;100611.59;;;18.22;95.70
38163;BME280;23977;53.078;18.248;2023-07-31T01:09:07;100618.69;;;18.16;97.48
38163;BME280;23977;53.078;18.248;2023-07-31T01:11:47;100621.59;;;18.15;99.33
38163;BME280;23977;53.078;18.248;2023-07-31T01:14:13;100630.13;;;17.98;100.00
38163;BME280;23977;53.078;18.248;2023-07-31T01:16:39;100626.88;;;17.69;100.00
38163;BME280;23977;53.078;18.248;2023-07-31T01:19:06;100614.06;;;17.58;100.00
38163;BME280;23977;53.078;18.248;2023-07-31T01:24:16;100632.84;;;17.78;100.00
38163;BME280;23977;53.078;18.248;2023-07-31T01:26:49;100625.44;;;17.60;100.00
38163;BME280;23977;53.078;18.248;2023-07-31T01:29:27;100624.63;;;17.53;100.00
38163;BME280;23977;53.078;18.248;2023-07-31T01:31:56;100613.91;;;17.33;100.00
38163;BME280;23977;53.078;18.248;2023-07-31T01:34:26;100633.34;;;17.28;100.00
38163;BME280;23977;53.078;18.248;2023-07-31T01:36:52;100623.63;;;17.34;100.00
38163;BME280;23977;53.078;18.248;2023-07-31T01:39:20;100620.09;;;17.20;100.00
38163;BME280;23977;53.078;18.248;2023-07-31T01:41:46;100625.91;;;17.44;100.00
38163;BME280;23977;53.078;18.248;2023-07-31T01:44:11;100617.19;;;17.28;100.00
38163;BME280;23977;53.078;18.248;2023-07-31T01:46:37;100615.16;;;17.17;100.00
38163;BME280;23977;53.078;18.248;2023-07-31T01:49:02;100622.59;;;17.28;100.00
38163;BME280;23977;53.078;18.248;2023-07-31T01:51:31;100592.59;;;17.11;100.00
38163;BME280;23977;53.078;18.248;2023-07-31T01:54:00;100610.19;;;17.27;100.00
38163;BME280;23977;53.078;18.248;2023-07-31T01:56:26;100624.66;;;17.39;100.00
38163;BME280;23977;53.078;18.248;2023-07-31T01:58:51;100620.09;;;17.33;100.00
38163;BME280;23977;53.078;18.248;2023-07-31T02:01:17;100628.38;;;17.18;100.00
38163;BME280;23977;53.078;18.248;2023-07-31T02:03:42;100620.53;;;17.30;100.00
38163;BME280;23977;53.078;18.248;2023-07-31T02:06:08;100627.75;;;17.30;100.00
38163;BME280;23977;53.078;18.248;2023-07-31T02:08:33;100629.22;;;17.19;100.00
38163;BME280;23977;53.078;18.248;2023-07-31T02:10:59;100626.31;;;17.00;100.00
38163;BME280;23977;53.078;18.248;2023-07-31T02:13:25;100626.72;;;17.24;100.00
38163;BME280;23977;53.078;18.248;2023-07-31T02:15:51;100636.22;;;17.27;100.00
38163;BME280;23977;53.078;18.248;2023-07-31T02:18:17;100623.84;;;17.19;100.00
38163;BME280;23977;53.078;18.248;2023-07-31T02:20:42;100599.00;;;16.90;100.00
38163;BME280;23977;53.078;18.248;2023-07-31T02:23:08;100616.78;;;16.91;100.00
38163;BME280;23977;53.078;18.248;2023-07-31T02:25:34;100635.19;;;16.88;100.00
38163;BME280;23977;53.078;18.248;2023-07-31T02:27:59;100634.16;;;16.89;100.00
38163;BME280;23977;53.078;18.248;2023-07-31T02:30:25;100615.44;;;16.47;100.00
38163;BME280;23977;53.078;18.248;2023-07-31T02:32:50;100629.94;;;16.59;100.00
38163;BME280;23977;53.078;18.248;2023-07-31T02:35:16;100635.72;;;16.56;100.00
38163;BME280;23977;53.078;18.248;2023-07-31T02:37:43;100622.00;;;16.31;100.00
38163;BME280;23977;53.078;18.248;2023-07-31T02:40:10;100631.38;;;16.07;100.00
38163;BME280;23977;53.078;18.248;2023-07-31T02:42:35;100639.09;;;16.23;100.00
38163;BME280;23977;53.078;18.248;2023-07-31T02:45:01;100640.50;;;16.06;100.00
38163;BME280;23977;53.078;18.248;2023-07-31T02:47:26;100637.63;;;16.14;100.00
38163;BME280;23977;53.078;18.248;2023-07-31T02:49:52;100631.91;;;15.82;100.00
38163;BME280;23977;53.078;18.248;2023-07-31T02:52:17;100640.59;;;15.84;100.00
38163;BME280;23977;53.078;18.248;2023-07-31T02:54:43;100614.66;;;15.70;100.00
38163;BME280;23977;53.078;18.248;2023-07-31T02:57:09;100638.75;;;15.91;100.00
38163;BME280;23977;53.078;18.248;2023-07-31T02:59:34;100619.28;;;15.76;100.00
38163;BME280;23977;53.078;18.248;2023-07-31T03:02:00;100645.78;;;15.93;100.00
38163;BME280;23977;53.078;18.248;2023-07-31T03:04:26;100649.44;;;15.85;100.00
38163;BME280;23977;53.078;18.248;2023-07-31T03:06:51;100634.69;;;15.67;100.00
38163;BME280;23977;53.078;18.248;2023-07-31T03:09:17;100652.44;;;15.75;100.00
38163;BME280;23977;53.078;18.248;2023-07-31T03:11:42;100645.75;;;15.86;100.00
38163;BME280;23977;53.078;18.248;2023-07-31T03:14:08;100644.59;;;15.73;100.00
38163;BME280;23977;53.078;18.248;2023-07-31T03:16:33;100649.44;;;15.85;100.00
38163;BME280;23977;53.078;18.248;2023-07-31T03:18:59;100654.94;;;16.05;100.00
38163;BME280;23977;53.078;18.248;2023-07-31T03:21:25;100650.41;;;16.05;100.00
38163;BME280;23977;53.078;18.248;2023-07-31T03:23:50;100662.81;;;16.13;100.00
38163;BME280;23977;53.078;18.248;2023-07-31T03:26:16;100656.88;;;16.24;100.00
38163;BME280;23977;53.078;18.248;2023-07-31T03:28:42;100642.47;;;16.32;100.00
38163;BME280;23977;53.078;18.248;2023-07-31T03:31:07;100653.91;;;16.61;100.00
38163;BME280;23977;53.078;18.248;2023-07-31T03:33:33;100658.94;;;16.84;100.00
38163;BME280;23977;53.078;18.248;2023-07-31T03:35:59;100660.22;;;17.42;100.00
38163;BME280;23977;53.078;18.248;2023-07-31T03:38:25;100672.53;;;18.23;100.00
38163;BME280;23977;53.078;18.248;2023-07-31T03:40:50;100665.81;;;19.16;95.22
38163;BME280;23977;53.078;18.248;2023-07-31T03:43:16;100674.66;;;19.99;89.98
38163;BME280;23977;53.078;18.248;2023-07-31T03:45:41;100667.94;;;20.87;85.83
38163;BME280;23977;53.078;18.248;2023-07-31T03:48:07;100652.00;;;21.09;81.69
38163;BME280;23977;53.078;18.248;2023-07-31T03:50:33;100675.66;;;21.14;80.94
38163;BME280;23977;53.078;18.248;2023-07-31T03:52:59;100665.47;;;20.85;79.50
38163;BME280;23977;53.078;18.248;2023-07-31T03:55:24;100666.81;;;20.46;81.39
38163;BME280;23977;53.078;18.248;2023-07-31T03:57:50;100674.50;;;20.12;83.39
38163;BME280;23977;53.078;18.248;2023-07-31T04:00:15;100676.97;;;20.13;84.63
38163;BME280;23977;53.078;18.248;2023-07-31T04:02:41;100681.06;;;21.14;79.93
38163;BME280;23977;53.078;18.248;2023-07-31T04:05:07;100677.09;;;22.51;72.92
38163;BME280;23977;53.078;18.248;2023-07-31T04:07:33;100669.28;;;23.63;68.87
38163;BME280;23977;53.078;18.248;2023-07-31T04:09:59;100650.22;;;24.47;64.77
38163;BME280;23977;53.078;18.248;2023-07-31T04:12:25;100667.09;;;24.71;61.30
38163;BME280;23977;53.078;18.248;2023-07-31T04:14:51;100665.94;;;23.95;63.71
38163;BME280;23977;53.078;18.248;2023-07-31T04:17:19;100672.56;;;22.69;68.67
38163;BME280;23977;53.078;18.248;2023-07-31T04:19:45;100676.16;;;22.05;70.43
38163;BME280;23977;53.078;18.248;2023-07-31T04:22:10;100677.56;;;21.25;73.61
38163;BME280;23977;53.078;18.248;2023-07-31T04:24:36;100671.09;;;20.84;75.17
38163;BME280;23977;53.078;18.248;2023-07-31T04:27:02;100673.97;;;20.22;77.68
38163;BME280;23977;53.078;18.248;2023-07-31T04:29:27;100667.00;;;20.14;77.91
38163;BME280;23977;53.078;18.248;2023-07-31T04:31:53;100670.00;;;19.87;79.38
38163;BME280;23977;53.078;18.248;2023-07-31T04:34:18;100658.81;;;19.84;79.80
38163;BME280;23977;53.078;18.248;2023-07-31T04:36:44;100661.69;;;19.64;79.93
38163;BME280;23977;53.078;18.248;2023-07-31T04:39:09;100666.69;;;20.04;79.87
38163;BME280;23977;53.078;18.248;2023-07-31T04:41:35;100636.50;;;20.74;76.09
38163;BME280;23977;53.078;18.248;2023-07-31T04:44:01;100646.00;;;21.90;72.82
38163;BME280;23977;53.078;18.248;2023-07-31T04:46:27;100663.91;;;24.08;64.48
38163;BME280;23977;53.078;18.248;2023-07-31T04:48:52;100660.31;;;25.76;57.05
38163;BME280;23977;53.078;18.248;2023-07-31T04:51:18;100657.75;;;27.21;53.49
38163;BME280;23977;53.078;18.248;2023-07-31T04:53:43;100641.25;;;28.88;48.34
38163;BME280;23977;53.078;18.248;2023-07-31T04:56:09;100636.97;;;29.69;45.27
38163;BME280;23977;53.078;18.248;2023-07-31T04:58:34;100642.34;;;29.50;45.69
38163;BME280;23977;53.078;18.248;2023-07-31T05:01:00;100655.81;;;30.19;44.15
38163;BME280;23977;53.078;18.248;2023-07-31T05:03:26;100658.63;;;30.57;42.08
38163;BME280;23977;53.078;18.248;2023-07-31T05:05:51;100665.38;;;30.84;41.66
38163;BME280;23977;53.078;18.248;2023-07-31T05:08:17;100651.25;;;31.70;40.06
38163;BME280;23977;53.078;18.248;2023-07-31T05:10:45;100665.41;;;32.05;39.11
38163;BME280;23977;53.078;18.248;2023-07-31T05:13:10;100660.69;;;32.48;37.67
38163;BME280;23977;53.078;18.248;2023-07-31T05:15:36;100655.63;;;32.27;38.43
38163;BME280;23977;53.078;18.248;2023-07-31T05:18:02;100651.84;;;32.73;37.88
38163;BME280;23977;53.078;18.248;2023-07-31T05:20:28;100657.34;;;33.81;35.78
38163;BME280;23977;53.078;18.248;2023-07-31T05:22:53;100649.88;;;34.74;33.93
38163;BME280;23977;53.078;18.248;2023-07-31T05:25:19;100662.00;;;35.73;32.50
38163;BME280;23977;53.078;18.248;2023-07-31T05:27:45;100661.31;;;35.20;32.62
38163;BME280;23977;53.078;18.248;2023-07-31T05:30:10;100669.66;;;33.44;35.32
38163;BME280;23977;53.078;18.248;2023-07-31T05:32:36;100668.81;;;34.23;33.92
38163;BME280;23977;53.078;18.248;2023-07-31T05:35:02;100661.84;;;33.77;35.99
38163;BME280;23977;53.078;18.248;2023-07-31T05:37:27;100665.41;;;33.69;34.16
38163;BME280;23977;53.078;18.248;2023-07-31T05:39:53;100650.97;;;33.41;35.87
38163;BME280;23977;53.078;18.248;2023-07-31T05:42:18;100657.31;;;34.21;34.08
38163;BME280;23977;53.078;18.248;2023-07-31T05:44:44;100651.41;;;35.66;32.04
38163;BME280;23977;53.078;18.248;2023-07-31T05:47:10;100654.00;;;36.31;31.65
38163;BME280;23977;53.078;18.248;2023-07-31T05:49:36;100651.22;;;37.52;29.87
38163;BME280;23977;53.078;18.248;2023-07-31T05:52:01;100652.75;;;38.40;28.70
38163;BME280;23977;53.078;18.248;2023-07-31T05:54:27;100648.63;;;39.66;27.50
38163;BME280;23977;53.078;18.248;2023-07-31T05:56:53;100647.44;;;39.35;27.82
38163;BME280;23977;53.078;18.248;2023-07-31T05:59:18;100623.22;;;37.94;28.67
38163;BME280;23977;53.078;18.248;2023-07-31T06:01:44;100637.44;;;38.18;28.60
38163;BME280;23977;53.078;18.248;2023-07-31T06:04:10;100636.59;;;38.05;28.22
38163;BME280;23977;53.078;18.248;2023-07-31T06:06:35;100642.84;;;37.40;29.45
38163;BME280;23977;53.078;18.248;2023-07-31T06:09:01;100641.91;;;35.85;30.56
38163;BME280;23977;53.078;18.248;2023-07-31T06:11:26;100645.81;;;35.45;31.29
38163;BME280;23977;53.078;18.248;2023-07-31T06:13:52;100643.16;;;34.66;32.60
38163;BME280;23977;53.078;18.248;2023-07-31T06:16:18;100639.56;;;36.17;31.02
38163;BME280;23977;53.078;18.248;2023-07-31T06:18:43;100640.69;;;38.48;28.61
38163;BME280;23977;53.078;18.248;2023-07-31T06:21:10;100645.63;;;39.27;27.62
38163;BME280;23977;53.078;18.248;2023-07-31T06:23:36;100647.16;;;39.40;27.04
38163;BME280;23977;53.078;18.248;2023-07-31T06:26:01;100639.72;;;39.45;26.68
38163;BME280;23977;53.078;18.248;2023-07-31T06:28:28;100655.63;;;39.28;26.77
38163;BME280;23977;53.078;18.248;2023-07-31T06:31:00;100645.09;;;39.21;26.97
38163;BME280;23977;53.078;18.248;2023-07-31T06:33:27;100648.94;;;38.32;28.52
38163;BME280;23977;53.078;18.248;2023-07-31T06:35:52;100647.28;;;39.60;27.27
38163;BME280;23977;53.078;18.248;2023-07-31T06:38:23;100648.47;;;40.30;26.39
38163;BME280;23977;53.078;18.248;2023-07-31T06:40:49;100652.72;;;39.09;27.08
38163;BME280;23977;53.078;18.248;2023-07-31T06:43:15;100641.25;;;37.64;29.00
38163;BME280;23977;53.078;18.248;2023-07-31T06:45:41;100653.28;;;37.43;28.96
38163;BME280;23977;53.078;18.248;2023-07-31T06:48:06;100641.94;;;37.61;29.33
38163;BME280;23977;53.078;18.248;2023-07-31T06:50:33;100641.53;;;37.71;28.98
38163;BME280;23977;53.078;18.248;2023-07-31T06:52:59;100630.16;;;36.93;29.66
38163;BME280;23977;53.078;18.248;2023-07-31T06:55:25;100646.97;;;33.96;33.16
38163;BME280;23977;53.078;18.248;2023-07-31T06:57:53;100663.75;;;33.68;34.28
38163;BME280;23977;53.078;18.248;2023-07-31T07:00:20;100660.97;;;34.08;33.30
38163;BME280;23977;53.078;18.248;2023-07-31T07:02:46;100658.22;;;33.05;34.51
38163;BME280;23977;53.078;18.248;2023-07-31T07:05:17;100661.69;;;32.52;35.77
38163;BME280;23977;53.078;18.248;2023-07-31T07:07:44;100664.31;;;31.32;37.32
38163;BME280;23977;53.078;18.248;2023-07-31T07:10:10;100662.19;;;30.39;39.35
38163;BME280;23977;53.078;18.248;2023-07-31T07:12:36;100659.13;;;30.21;38.96
38163;BME280;23977;53.078;18.248;2023-07-31T07:15:02;100658.84;;;30.42;38.98
38163;BME280;23977;53.078;18.248;2023-07-31T07:17:29;100641.66;;;30.12;39.72
38163;BME280;23977;53.078;18.248;2023-07-31T07:19:59;100660.06;;;29.34;40.92
38163;BME280;23977;53.078;18.248;2023-07-31T07:22:26;100652.25;;;28.83;42.94
38163;BME280;23977;53.078;18.248;2023-07-31T07:24:52;100665.28;;;28.96;42.76
38163;BME280;23977;53.078;18.248;2023-07-31T07:27:18;100640.84;;;28.70;42.85
38163;BME280;23977;53.078;18.248;2023-07-31T07:29:43;100660.97;;;28.90;43.39
38163;BME280;23977;53.078;18.248;2023-07-31T07:32:09;100669.53;;;28.28;45.67
38163;BME280;23977;53.078;18.248;2023-07-31T07:34:34;100659.00;;;28.56;44.47
38163;BME280;23977;53.078;18.248;2023-07-31T07:37:00;100660.38;;;28.98;42.88
38163;BME280;23977;53.078;18.248;2023-07-31T07:39:26;100648.88;;;29.84;39.83
38163;BME280;23977;53.078;18.248;2023-07-31T07:41:51;100643.50;;;29.98;41.84
38163;BME280;23977;53.078;18.248;2023-07-31T07:44:18;100642.00;;;31.20;38.94
38163;BME280;23977;53.078;18.248;2023-07-31T07:46:44;100647.66;;;32.39;37.07
38163;BME280;23977;53.078;18.248;2023-07-31T07:49:09;100654.16;;;33.03;35.99
38163;BME280;23977;53.078;18.248;2023-07-31T07:51:35;100663.91;;;33.31;35.68
38163;BME280;23977;53.078;18.248;2023-07-31T07:54:01;100661.06;;;32.55;37.05
38163;BME280;23977;53.078;18.248;2023-07-31T07:56:27;100664.09;;;33.12;36.07
38163;BME280;23977;53.078;18.248;2023-07-31T07:58:53;100641.16;;;33.26;35.10
38163;BME280;23977;53.078;18.248;2023-07-31T08:01:19;100642.13;;;33.92;33.82
38163;BME280;23977;53.078;18.248;2023-07-31T08:03:44;100630.81;;;34.38;33.11
38163;BME280;23977;53.078;18.248;2023-07-31T08:06:10;100644.22;;;37.34;30.66
38163;BME280;23977;53.078;18.248;2023-07-31T08:08:36;100642.56;;;40.51;26.80
38163;BME280;23977;53.078;18.248;2023-07-31T08:11:02;100632.56;;;41.35;24.95
38163;BME280;23977;53.078;18.248;2023-07-31T08:13:28;100634.44;;;40.42;25.62
38163;BME280;23977;53.078;18.248;2023-07-31T08:15:54;100640.25;;;40.18;26.03
38163;BME280;23977;53.078;18.248;2023-07-31T08:18:19;100633.59;;;38.79;27.21
38163;BME280;23977;53.078;18.248;2023-07-31T08:20:45;100636.34;;;38.35;26.91
38163;BME280;23977;53.078;18.248;2023-07-31T08:23:11;100645.31;;;36.11;29.71
38163;BME280;23977;53.078;18.248;2023-07-31T08:25:37;100643.25;;;35.31;30.94
38163;BME280;23977;53.078;18.248;2023-07-31T08:28:03;100627.88;;;33.68;33.43
38163;BME280;23977;53.078;18.248;2023-07-31T08:30:29;100639.13;;;34.38;31.70
38163;BME280;23977;53.078;18.248;2023-07-31T08:32:55;100633.28;;;33.73;33.07
38163;BME280;23977;53.078;18.248;2023-07-31T08:35:21;100642.91;;;33.44;33.49
38163;BME280;23977;53.078;18.248;2023-07-31T08:37:46;100634.47;;;33.18;33.87
38163;BME280;23977;53.078;18.248;2023-07-31T08:40:12;100628.75;;;32.46;33.87
38163;BME280;23977;53.078;18.248;2023-07-31T08:42:57;100626.94;;;33.72;33.93
38163;BME280;23977;53.078;18.248;2023-07-31T08:45:28;100602.19;;;34.69;32.56
38163;BME280;23977;53.078;18.248;2023-07-31T08:47:54;100619.59;;;34.60;32.08
38163;BME280;23977;53.078;18.248;2023-07-31T08:50:21;100615.06;;;34.64;31.74
38163;BME280;23977;53.078;18.248;2023-07-31T08:52:50;100622.22;;;34.74;32.37
38163;BME280;23977;53.078;18.248;2023-07-31T08:55:16;100615.53;;;34.32;31.63
38163;BME280;23977;53.078;18.248;2023-07-31T08:57:42;100617.06;;;33.80;31.88
38163;BME280;23977;53.078;18.248;2023-07-31T09:00:10;100612.72;;;33.97;32.60
38163;BME280;23977;53.078;18.248;2023-07-31T09:02:59;100613.09;;;33.64;33.51
38163;BME280;23977;53.078;18.248;2023-07-31T09:05:26;100593.31;;;33.30;33.66
38163;BME280;23977;53.078;18.248;2023-07-31T09:07:54;100596.81;;;32.91;34.07
38163;BME280;23977;53.078;18.248;2023-07-31T09:10:21;100590.97;;;32.24;35.83
38163;BME280;23977;53.078;18.248;2023-07-31T09:12:47;100604.13;;;31.16;36.94
38163;BME280;23977;53.078;18.248;2023-07-31T09:15:14;100610.78;;;31.29;36.45
38163;BME280;23977;53.078;18.248;2023-07-31T09:17:40;100602.03;;;31.83;35.10
38163;BME280;23977;53.078;18.248;2023-07-31T09:20:16;100602.25;;;31.59;36.17
38163;BME280;23977;53.078;18.248;2023-07-31T09:22:43;100602.84;;;32.11;36.63
38163;BME280;23977;53.078;18.248;2023-07-31T09:25:19;100584.59;;;32.01;35.94
38163;BME280;23977;53.078;18.248;2023-07-31T09:27:59;100598.50;;;32.33;35.90
38163;BME280;23977;53.078;18.248;2023-07-31T09:30:26;100592.66;;;31.98;36.67
38163;BME280;23977;53.078;18.248;2023-07-31T09:33:03;100585.66;;;32.28;36.25
38163;BME280;23977;53.078;18.248;2023-07-31T09:35:34;100587.56;;;31.91;35.87
38163;BME280;23977;53.078;18.248;2023-07-31T09:38:07;100579.44;;;31.58;37.06
38163;BME280;23977;53.078;18.248;2023-07-31T09:40:39;100583.22;;;31.02;37.89
38163;BME280;23977;53.078;18.248;2023-07-31T09:43:07;100578.59;;;30.64;38.89
38163;BME280;23977;53.078;18.248;2023-07-31T09:45:38;100572.59;;;30.05;39.24
38163;BME280;23977;53.078;18.248;2023-07-31T09:48:12;100568.44;;;29.88;38.54
38163;BME280;23977;53.078;18.248;2023-07-31T09:50:39;100576.84;;;30.87;38.96
38163;BME280;23977;53.078;18.248;2023-07-31T09:53:06;100555.94;;;30.72;38.32
38163;BME280;23977;53.078;18.248;2023-07-31T09:55:32;100556.94;;;29.86;39.94
38163;BME280;23977;53.078;18.248;2023-07-31T09:57:58;100543.59;;;28.38;42.54
38163;BME280;23977;53.078;18.248;2023-07-31T10:00:25;100561.47;;;27.65;43.93
38163;BME280;23977;53.078;18.248;2023-07-31T10:02:53;100559.97;;;26.77;45.01
38163;BME280;23977;53.078;18.248;2023-07-31T10:05:20;100562.31;;;25.96;46.96
38163;BME280;23977;53.078;18.248;2023-07-31T10:07:56;100563.63;;;25.36;49.96
38163;BME280;23977;53.078;18.248;2023-07-31T10:10:23;100582.22;;;25.06;52.49
38163;BME280;23977;53.078;18.248;2023-07-31T10:12:51;100590.69;;;24.50;58.34
38163;BME280;23977;53.078;18.248;2023-07-31T10:15:19;100601.94;;;23.88;65.40
38163;BME280;23977;53.078;18.248;2023-07-31T10:17:49;100607.22;;;23.55;69.27
38163;BME280;23977;53.078;18.248;2023-07-31T10:20:16;100581.59;;;22.95;71.44
38163;BME280;23977;53.078;18.248;2023-07-31T10:22:43;100587.75;;;22.45;75.48
38163;BME280;23977;53.078;18.248;2023-07-31T10:25:09;100570.81;;;22.38;78.88
38163;BME280;23977;53.078;18.248;2023-07-31T10:27:36;100573.66;;;22.60;78.95
38163;BME280;23977;53.078;18.248;2023-07-31T10:30:08;100572.75;;;23.39;75.61
38163;BME280;23977;53.078;18.248;2023-07-31T10:32:34;100574.03;;;23.92;73.53
38163;BME280;23977;53.078;18.248;2023-07-31T10:35:01;100567.31;;;24.00;74.74
38163;BME280;23977;53.078;18.248;2023-07-31T10:37:30;100573.88;;;24.31;71.84
38163;BME280;23977;53.078;18.248;2023-07-31T10:40:24;100562.63;;;23.73;73.27
38163;BME280;23977;53.078;18.248;2023-07-31T10:45:32;100551.72;;;23.51;75.31
38163;BME280;23977;53.078;18.248;2023-07-31T10:48:06;100547.94;;;23.74;74.04
38163;BME280;23977;53.078;18.248;2023-07-31T10:50:37;100550.03;;;24.66;68.98
38163;BME280;23977;53.078;18.248;2023-07-31T10:53:03;100532.53;;;25.26;66.82
38163;BME280;23977;53.078;18.248;2023-07-31T10:55:38;100541.16;;;25.66;64.75
38163;BME280;23977;53.078;18.248;2023-07-31T10:58:12;100510.41;;;25.81;61.09
38163;BME280;23977;53.078;18.248;2023-07-31T11:08:12;100527.91;;;25.90;59.71
38163;BME280;23977;53.078;18.248;2023-07-31T11:10:38;100516.81;;;26.22;59.41
38163;BME280;23977;53.078;18.248;2023-07-31T11:13:05;100510.66;;;25.74;58.44
38163;BME280;23977;53.078;18.248;2023-07-31T11:15:31;100511.28;;;24.86;59.60
38163;BME280;23977;53.078;18.248;2023-07-31T11:17:56;100508.91;;;24.02;60.97
38163;BME280;23977;53.078;18.248;2023-07-31T11:20:25;100509.81;;;23.42;63.86
38163;BME280;23977;53.078;18.248;2023-07-31T11:22:51;100489.50;;;22.54;66.80
38163;BME280;23977;53.078;18.248;2023-07-31T11:25:18;100501.50;;;22.42;72.66
38163;BME280;23977;53.078;18.248;2023-07-31T11:27:43;100507.25;;;22.16;70.58
38163;BME280;23977;53.078;18.248;2023-07-31T11:30:11;100518.00;;;22.11;72.00
38163;BME280;23977;53.078;18.248;2023-07-31T11:32:37;100505.91;;;22.02;73.80
38163;BME280;23977;53.078;18.248;2023-07-31T11:35:03;100502.28;;;21.96;70.15
38163;BME280;23977;53.078;18.248;2023-07-31T11:37:41;100519.94;;;21.99;73.36
38163;BME280;23977;53.078;18.248;2023-07-31T11:40:08;100511.94;;;22.21;71.12
38163;BME280;23977;53.078;18.248;2023-07-31T11:42:35;100508.97;;;22.06;71.42
38163;BME280;23977;53.078;18.248;2023-07-31T11:45:05;100525.47;;;22.33;69.97
38163;BME280;23977;53.078;18.248;2023-07-31T11:47:34;100518.00;;;22.11;73.79
38163;BME280;23977;53.078;18.248;2023-07-31T11:50:01;100526.50;;;22.03;72.89
38163;BME280;23977;53.078;18.248;2023-07-31T11:52:30;100507.16;;;22.11;73.25
38163;BME280;23977;53.078;18.248;2023-07-31T11:54:57;100513.25;;;22.64;72.14
38163;BME280;23977;53.078;18.248;2023-07-31T11:57:25;100489.28;;;23.73;69.35
38163;BME280;23977;53.078;18.248;2023-07-31T11:59:51;100486.63;;;25.08;62.60
38163;BME280;23977;53.078;18.248;2023-07-31T12:02:18;100491.16;;;26.03;60.53
38163;BME280;23977;53.078;18.248;2023-07-31T12:04:45;100508.00;;;25.90;57.61
38163;BME280;23977;53.078;18.248;2023-07-31T12:07:11;100507.59;;;25.50;57.89
38163;BME280;23977;53.078;18.248;2023-07-31T12:09:38;100489.56;;;24.96;59.86
38163;BME280;23977;53.078;18.248;2023-07-31T12:12:08;100483.28;;;25.33;59.11
38163;BME280;23977;53.078;18.248;2023-07-31T12:14:34;100511.69;;;25.63;58.83
38163;BME280;23977;53.078;18.248;2023-07-31T12:17:05;100486.41;;;25.73;58.38
38163;BME280;23977;53.078;18.248;2023-07-31T12:19:32;100492.63;;;25.63;57.09
38163;BME280;23977;53.078;18.248;2023-07-31T12:21:59;100506.31;;;25.68;59.05
38163;BME280;23977;53.078;18.248;2023-07-31T12:24:26;100477.34;;;25.46;58.86
38163;BME280;23977;53.078;18.248;2023-07-31T12:26:52;100487.94;;;24.95;62.38
38163;BME280;23977;53.078;18.248;2023-07-31T12:29:18;100491.09;;;24.49;62.32
38163;BME280;23977;53.078;18.248;2023-07-31T12:31:43;100501.59;;;24.35;63.98
38163;BME280;23977;53.078;18.248;2023-07-31T12:34:17;100499.25;;;23.68;65.95
38163;BME280;23977;53.078;18.248;2023-07-31T12:36:44;100501.53;;;23.54;67.52
38163;BME280;23977;53.078;18.248;2023-07-31T12:39:10;100497.78;;;23.16;69.01
38163;BME280;23977;53.078;18.248;2023-07-31T12:41:35;100486.38;;;22.46;72.74
38163;BME280;23977;53.078;18.248;2023-07-31T12:44:02;100500.56;;;22.36;76.20
38163;BME280;23977;53.078;18.248;2023-07-31T12:46:28;100500.84;;;22.85;77.53
38163;BME280;23977;53.078;18.248;2023-07-31T12:48:54;100480.94;;;23.36;74.52
38163;BME280;23977;53.078;18.248;2023-07-31T12:51:20;100486.34;;;23.58;74.05